createdAt,value
2023-01-17T00:02:05.930Z,8.98
2023-01-17T00:04:52.192Z,7.86
2023-01-17T00:07:38.649Z,8.65
2023-01-17T00:10:10.568Z,9.33
2023-01-17T00:12:37.853Z,8.78
2023-01-17T00:15:05.581Z,9.77
2023-01-17T00:17:33.016Z,9.33
2023-01-17T00:20:20.222Z,8.82
2023-01-17T00:23:23.092Z,7.98
2023-01-17T00:26:05.569Z,8.45
2023-01-17T00:28:34.136Z,9.23
2023-01-17T00:31:01.377Z,9.25
2023-01-17T00:33:28.544Z,10.11
2023-01-17T00:35:56.647Z,10.67
2023-01-17T00:38:24.961Z,9.73
2023-01-17T00:40:52.188Z,10.23
2023-01-17T00:43:38.766Z,10.21
2023-01-17T00:46:24.867Z,9.75
2023-01-17T00:49:11.192Z,10.63
2023-01-17T00:51:56.780Z,10.83
2023-01-17T00:54:43.048Z,9.39
2023-01-17T00:57:28.745Z,10.71
2023-01-17T01:00:14.922Z,10.58
2023-01-17T01:03:00.680Z,11.17
2023-01-17T01:05:46.761Z,8.96
2023-01-17T01:08:35.754Z,9.05
2023-01-17T01:11:32.574Z,10.39
2023-01-17T01:14:19.534Z,11.26
2023-01-17T01:17:05.680Z,10.08
2023-01-17T01:19:51.705Z,10.27
2023-01-17T01:22:38.125Z,9.97
2023-01-17T01:25:24.332Z,9.25
2023-01-17T01:28:10.562Z,9.86
2023-01-17T01:30:56.636Z,8.46
2023-01-17T01:33:24.015Z,9.34
2023-01-17T01:35:54.439Z,9.21
2023-01-17T01:38:24.902Z,8.27
2023-01-17T01:40:53.418Z,8.34
2023-01-17T01:43:40.822Z,8.23
2023-01-17T01:46:08.248Z,8.25
2023-01-17T01:48:35.985Z,8.47
2023-01-17T01:51:04.240Z,9.25
2023-01-17T01:53:32.355Z,9.88
2023-01-17T01:55:59.533Z,9.81
2023-01-17T01:58:27.920Z,8.63
2023-01-17T02:00:55.417Z,9.05
2023-01-17T02:03:24.622Z,9.65
2023-01-17T02:05:51.871Z,9.85
2023-01-17T02:08:19.952Z,9.60
2023-01-17T02:10:47.665Z,10.13
2023-01-17T02:13:16.177Z,9.09
2023-01-17T02:15:49.305Z,9.05
2023-01-17T02:18:21.687Z,8.56
2023-01-17T02:21:12.200Z,9.49
2023-01-17T02:23:48.887Z,9.82
2023-01-17T02:26:35.390Z,9.36
2023-01-17T02:29:18.700Z,8.11
2023-01-17T02:31:47.341Z,8.96
2023-01-17T02:34:17.394Z,8.75
2023-01-17T02:37:04.951Z,9.19
2023-01-17T02:39:40.255Z,9.36
2023-01-17T02:42:09.031Z,9.16
2023-01-17T02:44:40.084Z,8.47
2023-01-17T02:47:22.970Z,8.83
2023-01-17T02:49:51.000Z,8.85
2023-01-17T02:52:18.115Z,9.06
2023-01-17T02:55:03.479Z,9.00
2023-01-17T02:57:44.446Z,9.70
2023-01-17T03:00:22.454Z,10.05
2023-01-17T03:02:55.087Z,9.86
2023-01-17T03:05:24.193Z,9.82
2023-01-17T03:07:51.801Z,10.64
2023-01-17T03:10:19.352Z,9.18
2023-01-17T03:12:46.490Z,9.24
2023-01-17T03:15:14.728Z,10.34
2023-01-17T03:17:42.977Z,9.37
2023-01-17T03:20:10.449Z,9.97
2023-01-17T03:22:37.850Z,8.77
2023-01-17T03:25:05.596Z,9.84
2023-01-17T03:27:32.747Z,9.02
2023-01-17T03:30:00.195Z,9.42
2023-01-17T03:32:27.559Z,10.24
2023-01-17T03:34:54.709Z,9.64
2023-01-17T03:37:22.139Z,10.52
2023-01-17T03:39:49.300Z,10.93
2023-01-17T03:42:19.156Z,10.17
2023-01-17T03:44:46.583Z,9.82
2023-01-17T03:47:13.725Z,10.11
2023-01-17T03:49:40.904Z,10.63
2023-01-17T03:52:08.340Z,11.04
2023-01-17T03:54:35.534Z,11.11
2023-01-17T03:57:02.681Z,11.58
2023-01-17T03:59:30.100Z,11.41
2023-01-17T04:01:57.255Z,11.54
2023-01-17T04:04:24.762Z,11.48
2023-01-17T04:06:51.917Z,11.86
2023-01-17T04:09:19.384Z,11.56
2023-01-17T04:11:50.858Z,10.71
2023-01-17T04:14:18.189Z,11.63
2023-01-17T04:16:45.410Z,11.15
2023-01-17T04:19:12.908Z,11.40
2023-01-17T04:21:40.068Z,11.56
2023-01-17T04:24:07.423Z,11.50
2023-01-17T04:26:34.869Z,11.34
2023-01-17T04:29:02.005Z,10.78
2023-01-17T04:31:29.193Z,11.47
2023-01-17T04:33:56.664Z,10.19
2023-01-17T04:36:23.791Z,10.88
2023-01-17T04:38:50.938Z,10.99
2023-01-17T04:41:18.379Z,11.33
2023-01-17T04:43:45.526Z,11.48
2023-01-17T04:46:12.809Z,11.49
2023-01-17T04:48:40.403Z,11.39
2023-01-17T04:51:07.586Z,11.91
2023-01-17T04:53:34.755Z,11.13
2023-01-17T04:56:02.230Z,11.33
2023-01-17T04:58:29.409Z,11.82
2023-01-17T05:01:00.551Z,11.52
2023-01-17T05:03:29.488Z,11.02
2023-01-17T05:05:56.672Z,11.24
2023-01-17T05:08:23.920Z,11.59
2023-01-17T05:10:51.335Z,11.20
2023-01-17T05:13:18.592Z,10.71
2023-01-17T05:15:46.973Z,11.20
2023-01-17T05:18:15.180Z,11.22
2023-01-17T05:20:42.530Z,11.04
2023-01-17T05:23:09.764Z,11.19
2023-01-17T05:25:37.189Z,11.02
2023-01-17T05:28:04.487Z,11.00
2023-01-17T05:30:32.296Z,11.47
2023-01-17T05:32:59.781Z,11.65
2023-01-17T05:35:28.587Z,10.85
2023-01-17T05:37:56.037Z,11.05
2023-01-17T05:40:24.827Z,11.78
2023-01-17T05:42:52.708Z,11.54
2023-01-17T05:45:20.413Z,11.77
2023-01-17T05:47:48.868Z,11.26
2023-01-17T05:50:17.421Z,11.36
2023-01-17T05:52:54.852Z,11.60
2023-01-17T05:55:22.522Z,11.07
2023-01-17T05:57:50.284Z,10.79
2023-01-17T06:00:17.626Z,10.46
2023-01-17T06:02:45.426Z,10.76
2023-01-17T06:05:12.764Z,10.79
2023-01-17T06:07:39.903Z,10.90
2023-01-17T06:10:07.489Z,11.00
2023-01-17T06:12:34.632Z,10.99
2023-01-17T06:15:01.785Z,11.04
2023-01-17T06:17:29.199Z,10.43
2023-01-17T06:19:56.373Z,10.42
2023-01-17T06:22:23.529Z,10.14
2023-01-17T06:24:50.976Z,9.65
2023-01-17T06:27:18.167Z,10.45
2023-01-17T06:29:45.301Z,10.66
2023-01-17T06:32:14.165Z,9.87
2023-01-17T06:34:41.411Z,9.97
2023-01-17T06:37:08.563Z,10.20
2023-01-17T06:39:35.958Z,10.56
2023-01-17T06:42:03.208Z,10.12
2023-01-17T06:44:30.363Z,10.23
2023-01-17T06:46:57.830Z,10.46
2023-01-17T06:49:25.510Z,10.27
2023-01-17T06:51:52.628Z,10.16
2023-01-17T06:54:20.072Z,10.63
2023-01-17T06:56:47.197Z,10.43
2023-01-17T06:59:14.341Z,10.52
2023-01-17T07:01:41.963Z,10.53
2023-01-17T07:04:09.280Z,10.57
2023-01-17T07:06:36.941Z,10.68
2023-01-17T07:09:04.458Z,10.84
2023-01-17T07:11:31.704Z,10.30
2023-01-17T07:13:58.871Z,10.35
2023-01-17T07:16:26.384Z,10.46
2023-01-17T07:18:54.831Z,10.14
2023-01-17T07:21:22.634Z,10.60
2023-01-17T07:23:50.135Z,10.94
2023-01-17T07:26:17.410Z,10.83
2023-01-17T07:28:44.563Z,10.77
2023-01-17T07:31:12.163Z,10.46
2023-01-17T07:33:39.333Z,10.43
2023-01-17T07:36:07.470Z,10.65
2023-01-17T07:38:35.177Z,10.60
2023-01-17T07:41:02.459Z,10.40
2023-01-17T07:43:29.615Z,11.15
2023-01-17T07:45:57.294Z,10.69
2023-01-17T07:48:24.617Z,8.99
2023-01-17T07:50:55.477Z,9.68
2023-01-17T07:53:23.702Z,10.64
2023-01-17T07:55:51.796Z,10.37
2023-01-17T07:58:19.197Z,10.42
2023-01-17T08:00:46.822Z,10.07
2023-01-17T08:03:15.350Z,10.67
2023-01-17T08:05:42.988Z,10.88
2023-01-17T08:08:10.210Z,10.44
2023-01-17T08:10:37.658Z,10.92
2023-01-17T08:13:04.911Z,10.79
2023-01-17T08:15:32.311Z,11.22
2023-01-17T08:18:00.210Z,9.50
2023-01-17T08:20:28.126Z,11.05
2023-01-17T08:22:56.200Z,10.01
2023-01-17T08:25:24.206Z,9.50
2023-01-17T08:27:51.896Z,10.64
2023-01-17T08:30:19.023Z,10.77
2023-01-17T08:32:46.464Z,8.54
2023-01-17T08:35:14.167Z,9.90
2023-01-17T08:37:41.861Z,11.08
2023-01-17T08:40:11.060Z,11.14
2023-01-17T08:42:39.368Z,11.14
2023-01-17T08:45:07.291Z,11.36
2023-01-17T08:47:34.766Z,10.42
2023-01-17T08:50:02.329Z,10.60
2023-01-17T08:52:29.508Z,11.59
2023-01-17T08:54:56.979Z,11.66
2023-01-17T08:57:24.122Z,11.14
2023-01-17T08:59:51.299Z,11.57
2023-01-17T09:02:19.423Z,11.51
2023-01-17T09:04:46.929Z,11.56
2023-01-17T09:07:14.590Z,11.64
2023-01-17T09:09:42.076Z,12.39
2023-01-17T09:12:09.247Z,12.51
2023-01-17T09:14:37.502Z,11.04
2023-01-17T09:17:06.848Z,11.34
2023-01-17T09:19:35.484Z,11.67
2023-01-17T09:22:04.349Z,10.22
2023-01-17T09:24:32.781Z,10.93
2023-01-17T09:27:00.220Z,10.97
2023-01-17T09:29:27.624Z,11.39
2023-01-17T09:31:55.053Z,11.30
2023-01-17T09:34:24.193Z,11.08
2023-01-17T09:36:51.368Z,11.59
2023-01-17T09:39:18.883Z,12.09
2023-01-17T09:41:51.845Z,11.29
2023-01-17T09:44:29.425Z,10.74
2023-01-17T09:46:58.149Z,11.64
2023-01-17T09:49:38.089Z,12.04
2023-01-17T09:52:05.574Z,11.34
2023-01-17T09:54:34.410Z,12.06
2023-01-17T09:57:09.169Z,12.25
2023-01-17T09:59:45.621Z,11.85
2023-01-17T10:02:31.478Z,12.38
2023-01-17T10:05:02.006Z,12.24
2023-01-17T10:07:52.284Z,12.78
2023-01-17T10:10:49.000Z,12.13
2023-01-17T10:13:18.947Z,10.58
2023-01-17T10:16:05.400Z,12.02
2023-01-17T10:18:47.602Z,12.00
2023-01-17T10:21:15.055Z,12.80
2023-01-17T10:23:55.623Z,11.76
2023-01-17T10:26:26.299Z,11.59
2023-01-17T10:28:54.672Z,12.75
2023-01-17T10:31:25.778Z,12.73
2023-01-17T10:33:54.082Z,12.00
2023-01-17T10:36:22.376Z,11.99
2023-01-17T10:38:51.226Z,12.48
2023-01-17T10:41:21.704Z,13.21
2023-01-17T10:43:52.611Z,12.52
2023-01-17T10:46:21.644Z,13.13
2023-01-17T10:48:49.764Z,12.91
2023-01-17T10:51:35.118Z,13.32
2023-01-17T10:54:08.777Z,12.47
2023-01-17T10:56:35.929Z,13.07
2023-01-17T10:59:09.418Z,13.68
2023-01-17T11:01:36.636Z,13.51
2023-01-17T11:04:04.156Z,13.22
2023-01-17T11:06:33.243Z,13.62
2023-01-17T11:09:02.107Z,13.65
2023-01-17T11:11:31.881Z,12.64
2023-01-17T11:14:05.580Z,12.74
2023-01-17T11:16:33.007Z,13.28
2023-01-17T11:19:05.818Z,13.29
2023-01-17T11:21:33.322Z,13.14
2023-01-17T11:24:08.006Z,13.68
2023-01-17T11:26:35.531Z,13.40
2023-01-17T11:29:15.283Z,13.32
2023-01-17T11:31:42.738Z,13.24
2023-01-17T11:34:17.291Z,13.25
2023-01-17T11:36:44.836Z,13.49
2023-01-17T11:39:18.043Z,13.47
2023-01-17T11:41:46.123Z,13.55
2023-01-17T11:44:22.588Z,13.37
2023-01-17T11:47:02.501Z,13.14
2023-01-17T11:49:29.685Z,13.65
2023-01-17T11:51:57.156Z,13.71
2023-01-17T11:54:24.271Z,13.72
2023-01-17T11:56:56.776Z,12.99
2023-01-17T11:59:34.829Z,13.46
2023-01-17T12:02:20.765Z,13.71
2023-01-17T12:05:00.415Z,13.05
2023-01-17T12:07:38.272Z,13.47
2023-01-17T12:10:18.009Z,13.63
2023-01-17T12:13:04.165Z,13.79
2023-01-17T12:15:51.866Z,13.31
2023-01-17T12:18:51.519Z,12.62
2023-01-17T12:21:22.379Z,12.96
2023-01-17T12:24:08.383Z,13.84
2023-01-17T12:26:49.902Z,13.70
2023-01-17T12:29:29.231Z,12.38
2023-01-17T12:31:59.604Z,13.65
2023-01-17T12:34:29.742Z,13.87
2023-01-17T12:37:00.381Z,13.81
2023-01-17T12:39:31.289Z,14.01
2023-01-17T12:42:02.739Z,14.28
2023-01-17T12:44:33.651Z,14.55
2023-01-17T12:47:02.336Z,14.78
2023-01-17T12:49:48.392Z,14.40
2023-01-17T12:52:28.022Z,14.71
2023-01-17T12:54:56.242Z,13.53
2023-01-17T12:57:28.923Z,13.99
2023-01-17T12:59:56.088Z,13.90
2023-01-17T13:02:31.890Z,13.33
2023-01-17T13:05:01.161Z,13.66
2023-01-17T13:07:28.855Z,13.44
2023-01-17T13:09:59.195Z,13.44
2023-01-17T13:12:26.642Z,14.53
2023-01-17T13:14:54.081Z,14.54
2023-01-17T13:17:26.239Z,14.95
2023-01-17T13:19:56.923Z,14.71
2023-01-17T13:22:27.082Z,13.82
2023-01-17T13:25:00.573Z,14.26
2023-01-17T13:27:30.695Z,12.96
2023-01-17T13:30:16.684Z,12.47
2023-01-17T13:33:02.426Z,13.09
2023-01-17T13:35:43.636Z,13.22
2023-01-17T13:38:29.880Z,12.40
2023-01-17T13:41:15.720Z,12.86
2023-01-17T13:44:06.229Z,13.53
2023-01-17T13:46:52.464Z,13.93
2023-01-17T13:49:21.085Z,13.60
2023-01-17T13:52:12.440Z,14.05
2023-01-17T13:54:43.820Z,13.09
2023-01-17T13:57:24.448Z,13.87
2023-01-17T13:59:51.945Z,13.77
2023-01-17T14:02:31.572Z,12.71
2023-01-17T14:05:07.938Z,13.56
2023-01-17T14:07:42.855Z,13.87
2023-01-17T14:10:36.973Z,12.71
2023-01-17T14:13:04.747Z,12.22
2023-01-17T14:15:35.361Z,12.53
2023-01-17T14:18:03.527Z,11.69
2023-01-17T14:20:36.188Z,10.53
2023-01-17T14:23:05.511Z,11.24
2023-01-17T14:25:38.362Z,11.61
2023-01-17T14:28:29.751Z,11.51
2023-01-17T14:30:58.127Z,10.48
2023-01-17T14:33:27.712Z,10.26
2023-01-17T14:35:56.969Z,11.13
2023-01-17T14:38:31.724Z,10.85
2023-01-17T14:41:01.931Z,10.83
2023-01-17T14:43:29.755Z,11.06
2023-01-17T14:46:00.839Z,11.33
2023-01-17T14:48:28.403Z,10.81
2023-01-17T14:50:57.421Z,11.29
2023-01-17T14:53:31.386Z,10.33
2023-01-17T14:56:02.657Z,10.12
2023-01-17T14:58:33.214Z,10.48
2023-01-17T15:01:10.996Z,9.83
2023-01-17T15:03:44.365Z,10.42
2023-01-17T15:06:13.048Z,9.84
2023-01-17T15:08:40.246Z,9.76
2023-01-17T15:11:12.001Z,9.43
2023-01-17T15:13:44.687Z,9.10
2023-01-17T15:16:19.839Z,9.59
2023-01-17T15:18:47.670Z,9.07
2023-01-17T15:21:19.527Z,9.31
2023-01-17T15:23:47.720Z,9.85
2023-01-17T15:26:15.686Z,8.92
2023-01-17T15:28:44.812Z,9.44
2023-01-17T15:31:13.599Z,9.76
2023-01-17T15:33:42.500Z,9.40
2023-01-17T15:36:12.756Z,9.72
2023-01-17T15:38:40.622Z,9.31
2023-01-17T15:41:12.250Z,9.06
2023-01-17T15:43:39.640Z,8.99
2023-01-17T15:46:06.878Z,9.09
2023-01-17T15:48:41.823Z,9.35
2023-01-17T15:51:09.439Z,9.62
2023-01-17T15:53:37.904Z,9.09
2023-01-17T15:56:37.460Z,9.41
2023-01-17T15:59:28.375Z,9.12
2023-01-17T16:01:56.510Z,9.71
2023-01-17T16:04:28.537Z,10.39
2023-01-17T16:06:55.753Z,10.42
2023-01-17T16:09:23.311Z,10.91
2023-01-17T16:11:50.755Z,10.79
2023-01-17T16:14:17.917Z,11.23
2023-01-17T16:16:49.284Z,11.78
2023-01-17T16:19:16.707Z,11.57
2023-01-17T16:21:45.157Z,11.18
2023-01-17T16:24:12.329Z,11.29
2023-01-17T16:26:39.828Z,10.86
2023-01-17T16:29:08.215Z,10.37
2023-01-17T16:31:36.154Z,10.75
2023-01-17T16:34:09.135Z,9.63
2023-01-17T16:36:37.273Z,10.93
2023-01-17T16:39:05.067Z,10.95
2023-01-17T16:41:32.537Z,10.07
2023-01-17T16:44:00.993Z,9.88
2023-01-17T16:46:29.496Z,9.82
2023-01-17T16:48:56.936Z,9.52
2023-01-17T16:51:24.125Z,9.27
2023-01-17T16:53:51.681Z,9.27
2023-01-17T16:56:19.710Z,8.74
2023-01-17T16:58:46.996Z,9.13
2023-01-17T17:01:16.032Z,8.79
2023-01-17T17:03:43.848Z,9.07
2023-01-17T17:06:11.409Z,8.39
2023-01-17T17:08:39.799Z,8.66
2023-01-17T17:11:17.488Z,8.69
2023-01-17T17:13:45.651Z,8.46
2023-01-17T17:16:18.630Z,8.14
2023-01-17T17:18:48.959Z,8.62
2023-01-17T17:21:16.329Z,8.37
2023-01-17T17:23:43.949Z,7.68
2023-01-17T17:26:11.673Z,7.73
2023-01-17T17:28:39.005Z,7.49
2023-01-17T17:31:08.800Z,7.58
2023-01-17T17:33:37.043Z,8.46
2023-01-17T17:36:05.568Z,8.31
2023-01-17T17:38:35.316Z,8.11
2023-01-17T17:41:07.079Z,8.82
2023-01-17T17:43:38.687Z,8.72
2023-01-17T17:46:06.763Z,8.95
2023-01-17T17:48:34.294Z,9.15
2023-01-17T17:51:06.464Z,9.61
2023-01-17T17:53:35.001Z,10.08
2023-01-17T17:56:03.990Z,8.57
2023-01-17T17:58:32.629Z,8.90
2023-01-17T18:01:04.497Z,8.80
2023-01-17T18:03:32.982Z,9.06
2023-01-17T18:06:01.301Z,9.04
2023-01-17T18:08:33.677Z,10.15
2023-01-17T18:11:02.551Z,9.72
2023-01-17T18:13:31.177Z,10.32
2023-01-17T18:16:07.709Z,10.25
2023-01-17T18:18:37.290Z,9.62
2023-01-17T18:21:15.232Z,10.03
2023-01-17T18:23:44.932Z,10.42
2023-01-17T18:26:19.594Z,11.14
2023-01-17T18:28:49.887Z,10.82
2023-01-17T18:31:17.915Z,11.05
2023-01-17T18:33:45.616Z,11.29
2023-01-17T18:36:14.243Z,11.12
2023-01-17T18:38:44.975Z,10.62
2023-01-17T18:41:14.615Z,10.41
2023-01-17T18:43:43.687Z,10.45
2023-01-17T18:46:12.707Z,9.52
2023-01-17T18:48:42.642Z,9.86
2023-01-17T18:51:11.882Z,10.36
2023-01-17T18:53:40.149Z,11.06
2023-01-17T18:56:09.085Z,10.42
2023-01-17T18:58:41.251Z,10.59
2023-01-17T19:01:11.752Z,9.87
2023-01-17T19:03:41.957Z,10.52
2023-01-17T19:06:13.347Z,10.19
2023-01-17T19:08:42.289Z,10.69
2023-01-17T19:11:11.532Z,10.94
2023-01-17T19:13:45.600Z,10.43
2023-01-17T19:16:15.877Z,10.14
2023-01-17T19:18:44.274Z,10.33
2023-01-17T19:21:14.715Z,9.79
2023-01-17T19:23:46.449Z,9.89
2023-01-17T19:26:20.529Z,9.12
2023-01-17T19:28:49.736Z,8.73
2023-01-17T19:31:19.169Z,8.64
2023-01-17T19:33:48.004Z,8.57
2023-01-17T19:36:18.843Z,9.02
2023-01-17T19:39:02.893Z,9.86
2023-01-17T19:41:35.158Z,9.75
2023-01-17T19:44:05.119Z,10.36
2023-01-17T19:46:34.157Z,8.97
2023-01-17T19:49:02.473Z,8.78
2023-01-17T19:51:30.531Z,9.54
2023-01-17T19:54:01.662Z,9.44
2023-01-17T19:56:30.256Z,9.66
2023-01-17T19:59:01.994Z,8.53
2023-01-17T20:01:31.531Z,8.52
2023-01-17T20:04:01.336Z,9.06
2023-01-17T20:06:30.693Z,8.82
2023-01-17T20:08:58.773Z,9.27
2023-01-17T20:11:27.743Z,8.46
2023-01-17T20:13:56.818Z,8.81
2023-01-17T20:16:27.763Z,9.80
2023-01-17T20:18:57.490Z,8.01
2023-01-17T20:21:26.521Z,8.04
2023-01-17T20:23:54.852Z,8.49
2023-01-17T20:26:24.776Z,8.31
2023-01-17T20:28:53.824Z,8.39
2023-01-17T20:31:22.292Z,8.92
2023-01-17T20:33:51.261Z,8.65
2023-01-17T20:36:19.743Z,8.29
2023-01-17T20:38:49.113Z,7.54
2023-01-17T20:41:18.106Z,8.02
2023-01-17T20:43:47.688Z,8.08
2023-01-17T20:46:15.779Z,6.64
2023-01-17T20:48:45.064Z,7.32
2023-01-17T20:51:13.606Z,7.42
2023-01-17T20:53:42.074Z,7.73
2023-01-17T20:56:13.185Z,8.47
2023-01-17T20:58:41.475Z,8.40
2023-01-17T21:01:09.575Z,7.70
2023-01-17T21:03:41.271Z,7.25
2023-01-17T21:06:10.830Z,7.39
2023-01-17T21:08:40.862Z,6.66
2023-01-17T21:11:09.049Z,6.51
2023-01-17T21:13:36.544Z,6.89
2023-01-17T21:16:04.305Z,7.27
2023-01-17T21:18:32.038Z,6.82
2023-01-17T21:21:03.194Z,6.54
2023-01-17T21:23:31.181Z,6.57
2023-01-17T21:25:58.664Z,6.64
2023-01-17T21:28:27.279Z,5.55
2023-01-17T21:30:55.237Z,6.17
2023-01-17T21:33:23.241Z,6.18
2023-01-17T21:35:50.582Z,6.17
2023-01-17T21:38:18.351Z,6.27
2023-01-17T21:40:45.830Z,6.60
2023-01-17T21:43:13.473Z,6.05
2023-01-17T21:45:41.595Z,5.39
2023-01-17T21:48:12.246Z,5.94
2023-01-17T21:50:39.749Z,6.75
2023-01-17T21:53:07.747Z,6.86
2023-01-17T21:55:53.668Z,6.14
2023-01-17T21:58:39.987Z,6.18
2023-01-17T22:01:25.311Z,6.15
2023-01-17T22:03:53.813Z,5.97
2023-01-17T22:06:21.749Z,6.67
2023-01-17T22:08:48.930Z,6.54
2023-01-17T22:11:17.456Z,7.28
2023-01-17T22:13:44.932Z,7.43
2023-01-17T22:16:16.351Z,7.43
2023-01-17T22:18:44.487Z,7.52
2023-01-17T22:21:16.666Z,8.11
2023-01-17T22:23:48.966Z,8.41
2023-01-17T22:26:16.239Z,7.77
2023-01-17T22:28:43.949Z,7.60
2023-01-17T22:31:16.331Z,7.68
2023-01-17T22:33:44.625Z,8.52
2023-01-17T22:36:13.764Z,8.37
2023-01-17T22:38:41.622Z,7.95
2023-01-17T22:41:13.149Z,9.05
2023-01-17T22:43:41.310Z,10.12
2023-01-17T22:46:10.079Z,10.32
2023-01-17T22:48:37.512Z,10.39
2023-01-17T22:51:05.949Z,10.09
2023-01-17T22:53:33.398Z,9.92
2023-01-17T22:56:07.292Z,10.16
2023-01-17T22:58:34.832Z,10.47
2023-01-17T23:01:08.570Z,10.98
2023-01-17T23:03:36.244Z,10.63
2023-01-17T23:06:09.607Z,10.93
2023-01-17T23:08:37.251Z,11.56
2023-01-17T23:11:27.065Z,11.65
2023-01-17T23:13:54.501Z,12.00
2023-01-17T23:16:41.331Z,12.40
2023-01-17T23:19:23.931Z,9.70
2023-01-17T23:22:10.809Z,10.88
2023-01-17T23:24:43.293Z,11.53
2023-01-17T23:27:35.666Z,11.87
2023-01-17T23:30:08.192Z,12.12
2023-01-17T23:32:35.538Z,12.53
2023-01-17T23:35:03.118Z,12.75
2023-01-17T23:37:50.472Z,13.13
2023-01-17T23:40:19.059Z,13.00
2023-01-17T23:43:05.119Z,13.43
2023-01-17T23:45:36.284Z,13.71
2023-01-17T23:48:05.632Z,13.76
2023-01-17T23:50:33.132Z,13.37
2023-01-17T23:53:00.489Z,13.56
2023-01-17T23:55:27.699Z,13.79
2023-01-17T23:57:56.041Z,13.91
